In Rescue
 
Open Full Screen Window  High Contrast Mode
Wind Gusting 00 knots
12
March 01, 2024 5:01 PM EST
Weather Information
Wind Direction
  180 °
Wind Speed
  12 kt (14 mph)
Wind Gust
  00 kt (0 mph)
Altimeter
30.22 in
Visibility
10 SM
Temperature
07° C
45° F
Dewpoint
-09° C
16° F
Humidity
31%
Sky Condition
Clear
VFR

METAR KPHN 012201Z AUTO 18012KT 10SM CLR 07/M09 A3022 RMK AO2

FAA Disclaimer: The data displayed is for advisory purposes only and is not to be used for flight planning or operations.